Time;durP1;ratioP1;P1;durP2;ratioP2;P2;SDS_P1;SDS_P2;PMS_P1;PMS_P2;Temp;Humidity;BMP_temperature;BMP_pressure;BME280_temperature;BME280_humidity;BME280_pressure;Samples;Min_cycle;Max_cycle;Signal;HPM_P1;HPM_P2
2022/05/14 00:00:26;;;;;;;6.63;3.33;;;;;;;;;;5058183;28;20218;-73
2022/05/14 00:02:55;;;;;;;9.43;3.43;;;;;;;;;;5058571;28;20273;-73
2022/05/14 00:05:23;;;;;;;6.17;3.40;;;;;;;;;;5056257;28;20210;-74
2022/05/14 00:07:51;;;;;;;9.50;3.00;;;;;;;;;;5062394;28;20226;-73
2022/05/14 00:10:19;;;;;;;5.60;3.70;;;;;;;;;;5061654;28;20208;-73
2022/05/14 00:13:03;;;;;;;6.47;3.33;;;;;;;;;;5059694;28;20198;-74
2022/05/14 00:15:31;;;;;;;7.60;3.17;;;;;;;;;;5059094;28;20206;-73
2022/05/14 00:17:59;;;;;;;6.90;2.93;;;;;;;;;;5063404;28;20257;-73
2022/05/14 00:20:28;;;;;;;6.60;3.53;;;;;;;;;;5065415;28;20868;-73
2022/05/14 00:22:55;;;;;;;6.27;3.60;;;;;;;;;;5066142;28;20234;-73
2022/05/14 00:25:23;;;;;;;7.87;3.50;;;;;;;;;;5058580;28;20207;-73
2022/05/14 00:27:50;;;;;;;8.80;3.60;;;;;;;;;;5066086;28;20705;-73
2022/05/14 00:30:19;;;;;;;6.20;3.40;;;;;;;;;;5066396;28;20206;-73
2022/05/14 00:32:47;;;;;;;9.80;3.33;;;;;;;;;;5065514;28;20233;-73
2022/05/14 00:35:16;;;;;;;11.10;3.37;;;;;;;;;;5063870;28;20202;-73
2022/05/14 00:37:43;;;;;;;6.00;2.90;;;;;;;;;;5063656;28;20338;-73
2022/05/14 00:40:14;;;;;;;9.10;3.30;;;;;;;;;;5063232;28;20214;-73
2022/05/14 00:42:42;;;;;;;8.80;3.60;;;;;;;;;;5063064;28;20202;-74
2022/05/14 00:45:10;;;;;;;7.37;3.37;;;;;;;;;;5067351;28;20198;-73
2022/05/14 00:47:39;;;;;;;6.27;3.10;;;;;;;;;;5070138;28;20659;-73
2022/05/14 00:50:07;;;;;;;7.37;3.20;;;;;;;;;;5055232;28;20298;-73
2022/05/14 00:52:36;;;;;;;5.50;3.20;;;;;;;;;;5061353;28;20483;-72
2022/05/14 00:55:06;;;;;;;6.23;3.30;;;;;;;;;;5054654;28;20234;-74
2022/05/14 00:57:35;;;;;;;7.47;3.73;;;;;;;;;;5059012;28;20305;-74
2022/05/14 01:00:05;;;;;;;7.00;3.40;;;;;;;;;;5059865;28;20778;-74
2022/05/14 01:02:33;;;;;;;4.90;3.10;;;;;;;;;;5057538;28;20229;-74
2022/05/14 01:05:00;;;;;;;9.60;3.77;;;;;;;;;;5060436;28;20294;-74
2022/05/14 01:07:28;;;;;;;6.20;3.10;;;;;;;;;;5068287;22;20230;-79
2022/05/14 01:09:59;;;;;;;7.60;3.47;;;;;;;;;;5074491;28;20211;-80
2022/05/14 01:12:27;;;;;;;6.50;3.80;;;;;;;;;;5071492;28;20202;-80
2022/05/14 01:14:54;;;;;;;5.87;3.43;;;;;;;;;;5074049;28;20202;-80
2022/05/14 01:17:22;;;;;;;8.23;3.20;;;;;;;;;;5071144;28;20218;-79
2022/05/14 01:19:49;;;;;;;6.17;3.33;;;;;;;;;;5070183;28;20679;-79
2022/05/14 01:22:25;;;;;;;6.53;3.80;;;;;;;;;;5070895;28;20304;-79
2022/05/14 01:27:41;;;;;;;6.50;3.50;;;;;;;;;;5073908;28;20320;-79
2022/05/14 01:30:09;;;;;;;9.13;3.30;;;;;;;;;;5073421;28;20213;-80
2022/05/14 01:32:36;;;;;;;8.97;4.10;;;;;;;;;;5066322;28;20633;-79
2022/05/14 01:35:04;;;;;;;6.77;3.67;;;;;;;;;;5068395;28;20213;-78
2022/05/14 01:37:31;;;;;;;9.53;3.73;;;;;;;;;;5067842;28;20224;-78
2022/05/14 01:39:58;;;;;;;7.07;3.27;;;;;;;;;;5063595;28;20301;-78
2022/05/14 01:42:25;;;;;;;7.67;3.20;;;;;;;;;;5067046;28;20715;-78
2022/05/14 01:44:54;;;;;;;7.27;3.67;;;;;;;;;;5067268;28;20286;-80
2022/05/14 01:47:21;;;;;;;9.87;3.53;;;;;;;;;;5072549;28;20269;-79
2022/05/14 01:49:48;;;;;;;7.40;3.50;;;;;;;;;;5067526;28;20241;-79
2022/05/14 01:52:15;;;;;;;5.83;3.53;;;;;;;;;;5070622;28;20198;-80
2022/05/14 01:54:43;;;;;;;7.97;3.50;;;;;;;;;;5070420;28;20266;-79
2022/05/14 01:57:10;;;;;;;9.17;3.63;;;;;;;;;;5067940;28;20756;-80
2022/05/14 01:59:37;;;;;;;6.93;3.70;;;;;;;;;;5069857;28;20202;-80
2022/05/14 02:02:10;;;;;;;6.93;3.90;;;;;;;;;;5070068;28;20222;-80
2022/05/14 02:04:37;;;;;;;6.90;4.07;;;;;;;;;;5069711;28;20202;-79
2022/05/14 02:07:05;;;;;;;9.60;3.93;;;;;;;;;;5072651;28;20237;-80
2022/05/14 02:09:32;;;;;;;6.10;3.43;;;;;;;;;;5067482;28;20202;-80
2022/05/14 02:12:01;;;;;;;6.97;3.50;;;;;;;;;;5071595;28;20198;-79
2022/05/14 02:14:28;;;;;;;10.67;4.40;;;;;;;;;;5074097;28;20218;-80
2022/05/14 02:16:56;;;;;;;7.97;3.70;;;;;;;;;;5073672;28;20222;-79
2022/05/14 02:19:24;;;;;;;6.87;3.93;;;;;;;;;;5075572;28;20201;-79
2022/05/14 02:21:51;;;;;;;9.47;4.43;;;;;;;;;;5075956;28;20214;-79
2022/05/14 02:24:18;;;;;;;7.77;3.83;;;;;;;;;;5075467;28;20214;-80
2022/05/14 02:26:46;;;;;;;6.63;4.07;;;;;;;;;;5070299;28;20255;-79
2022/05/14 02:29:13;;;;;;;8.80;3.63;;;;;;;;;;5068061;28;20290;-80
2022/05/14 02:31:40;;;;;;;8.03;4.20;;;;;;;;;;5071096;28;20289;-79
2022/05/14 02:34:07;;;;;;;6.43;3.77;;;;;;;;;;5067076;28;20611;-79
2022/05/14 02:36:36;;;;;;;8.40;3.77;;;;;;;;;;5066751;28;20592;-79
2022/05/14 02:39:03;;;;;;;9.30;4.30;;;;;;;;;;5069013;28;20574;-80
2022/05/14 02:41:30;;;;;;;9.10;4.33;;;;;;;;;;5070689;28;20218;-80
2022/05/14 02:43:57;;;;;;;8.27;3.97;;;;;;;;;;5076019;28;20217;-80
2022/05/14 02:46:24;;;;;;;10.47;3.83;;;;;;;;;;5073639;28;20202;-80
2022/05/14 02:48:52;;;;;;;8.07;4.07;;;;;;;;;;5072160;28;20194;-80
2022/05/14 02:51:19;;;;;;;8.57;3.87;;;;;;;;;;5075515;28;20202;-80
2022/05/14 02:53:48;;;;;;;7.37;3.83;;;;;;;;;;5071836;28;20202;-80
2022/05/14 02:56:15;;;;;;;9.80;3.80;;;;;;;;;;5073485;28;20232;-80
2022/05/14 03:01:27;;;;;;;6.13;3.77;;;;;;;;;;5075572;28;20291;-80
2022/05/14 03:03:54;;;;;;;6.37;4.30;;;;;;;;;;5071471;28;20753;-80
2022/05/14 03:06:21;;;;;;;8.67;3.93;;;;;;;;;;5073483;28;20252;-80
2022/05/14 03:08:51;;;;;;;7.13;3.90;;;;;;;;;;5074014;28;20289;-80
2022/05/14 03:11:18;;;;;;;10.07;4.03;;;;;;;;;;5076606;28;20195;-80
2022/05/14 03:13:45;;;;;;;7.90;4.40;;;;;;;;;;5071165;28;20198;-80
2022/05/14 03:16:12;;;;;;;6.87;4.00;;;;;;;;;;5076014;28;20228;-80
2022/05/14 03:18:41;;;;;;;7.97;4.43;;;;;;;;;;5073777;28;20206;-80
2022/05/14 03:21:08;;;;;;;7.63;4.27;;;;;;;;;;5073854;28;20213;-80
2022/05/14 03:23:35;;;;;;;5.53;3.97;;;;;;;;;;5076539;28;20220;-80
2022/05/14 03:26:03;;;;;;;7.60;4.17;;;;;;;;;;5071358;28;20231;-81
2022/05/14 03:28:31;;;;;;;8.17;4.50;;;;;;;;;;5068972;28;20237;-79
2022/05/14 03:30:59;;;;;;;6.73;4.23;;;;;;;;;;5069107;28;20722;-79
2022/05/14 03:33:26;;;;;;;7.00;4.30;;;;;;;;;;5071150;28;20293;-79
2022/05/14 03:35:53;;;;;;;7.63;4.40;;;;;;;;;;5065209;28;20210;-80
2022/05/14 03:38:20;;;;;;;7.03;4.27;;;;;;;;;;5070158;28;20227;-79
2022/05/14 03:40:48;;;;;;;11.57;4.90;;;;;;;;;;5071201;28;20233;-79
2022/05/14 03:43:17;;;;;;;7.97;4.37;;;;;;;;;;5068908;28;20222;-78
2022/05/14 03:45:44;;;;;;;11.47;4.63;;;;;;;;;;5069752;28;20210;-77
2022/05/14 03:48:11;;;;;;;7.10;4.50;;;;;;;;;;5069147;28;20238;-78
2022/05/14 03:50:38;;;;;;;7.77;5.13;;;;;;;;;;5070174;28;20207;-78
2022/05/14 03:53:05;;;;;;;7.73;4.20;;;;;;;;;;5072695;28;20198;-78
2022/05/14 03:55:33;;;;;;;7.60;4.77;;;;;;;;;;5068687;28;20202;-80
2022/05/14 03:58:00;;;;;;;9.63;4.93;;;;;;;;;;5073154;28;20249;-81
2022/05/14 04:00:28;;;;;;;10.40;4.60;;;;;;;;;;5068033;28;20293;-80
2022/05/14 04:02:56;;;;;;;9.80;4.63;;;;;;;;;;5066500;28;20223;-80
2022/05/14 04:05:23;;;;;;;9.20;4.63;;;;;;;;;;5068893;28;20229;-81
2022/05/14 04:07:50;;;;;;;8.53;4.40;;;;;;;;;;5070831;28;20316;-81
2022/05/14 04:10:17;;;;;;;8.47;4.70;;;;;;;;;;5070657;28;20297;-81
2022/05/14 04:12:45;;;;;;;9.30;4.20;;;;;;;;;;5071497;28;20289;-81
2022/05/14 04:15:12;;;;;;;8.10;4.00;;;;;;;;;;5071056;28;20666;-80
2022/05/14 04:17:41;;;;;;;10.00;4.43;;;;;;;;;;5070777;28;20225;-79
2022/05/14 04:20:09;;;;;;;7.97;4.23;;;;;;;;;;5073371;28;20210;-82
2022/05/14 04:22:36;;;;;;;9.13;4.53;;;;;;;;;;5071340;28;20301;-81
2022/05/14 04:25:04;;;;;;;8.23;4.53;;;;;;;;;;5070545;28;20212;-80
2022/05/14 04:27:31;;;;;;;8.47;4.60;;;;;;;;;;5072146;28;20226;-78
2022/05/14 04:29:58;;;;;;;7.33;4.73;;;;;;;;;;5068555;28;20310;-81
2022/05/14 04:32:25;;;;;;;6.13;4.10;;;;;;;;;;5072197;28;20215;-81
2022/05/14 04:34:54;;;;;;;9.47;4.50;;;;;;;;;;5070528;28;20201;-81
2022/05/14 04:37:21;;;;;;;16.03;4.50;;;;;;;;;;5069494;28;20313;-79
2022/05/14 04:39:49;;;;;;;5.43;4.00;;;;;;;;;;5073465;28;20294;-80
2022/05/14 04:42:16;;;;;;;6.63;4.40;;;;;;;;;;5072138;28;20218;-81
2022/05/14 04:44:44;;;;;;;8.60;4.03;;;;;;;;;;5072590;28;20206;-82
2022/05/14 04:47:12;;;;;;;7.67;4.57;;;;;;;;;;5072923;28;20313;-82
2022/05/14 04:49:39;;;;;;;10.77;5.03;;;;;;;;;;5071267;28;20210;-82
2022/05/14 04:52:08;;;;;;;10.43;4.27;;;;;;;;;;5070031;28;20198;-81
2022/05/14 04:54:36;;;;;;;7.73;4.10;;;;;;;;;;5072754;28;20237;-81
2022/05/14 04:57:04;;;;;;;8.30;4.00;;;;;;;;;;5070788;28;20255;-82
2022/05/14 04:59:31;;;;;;;8.43;4.40;;;;;;;;;;5073932;28;20202;-80
2022/05/14 05:04:44;;;;;;;7.67;4.33;;;;;;;;;;5073231;28;20206;-81
2022/05/14 05:07:12;;;;;;;10.97;4.60;;;;;;;;;;5076252;28;20248;-81
2022/05/14 05:09:40;;;;;;;10.07;4.87;;;;;;;;;;5072164;28;20201;-81
2022/05/14 05:12:07;;;;;;;7.03;4.10;;;;;;;;;;5070009;28;20792;-80
2022/05/14 05:14:34;;;;;;;7.73;4.40;;;;;;;;;;5073784;28;20217;-81
2022/05/14 05:17:01;;;;;;;7.37;4.27;;;;;;;;;;5072081;28;20227;-80
2022/05/14 05:19:29;;;;;;;9.37;3.90;;;;;;;;;;5072561;28;20212;-80
2022/05/14 05:21:56;;;;;;;8.17;4.00;;;;;;;;;;5074094;28;20279;-79
2022/05/14 05:24:24;;;;;;;8.03;4.10;;;;;;;;;;5073066;28;20662;-79
2022/05/14 05:26:51;;;;;;;6.10;4.27;;;;;;;;;;5071651;28;20230;-79
2022/05/14 05:29:19;;;;;;;9.97;4.20;;;;;;;;;;5072316;28;21030;-79
2022/05/14 05:31:46;;;;;;;6.03;3.70;;;;;;;;;;5071443;28;20909;-80
2022/05/14 05:34:13;;;;;;;7.23;4.07;;;;;;;;;;5070619;28;20745;-78
2022/05/14 05:36:40;;;;;;;10.20;3.97;;;;;;;;;;5073399;28;20229;-79
2022/05/14 05:39:07;;;;;;;9.80;3.70;;;;;;;;;;5074348;28;20333;-80
2022/05/14 05:41:36;;;;;;;8.40;3.53;;;;;;;;;;5074255;28;20209;-80
2022/05/14 05:44:03;;;;;;;6.97;3.47;;;;;;;;;;5073622;28;20230;-79
2022/05/14 05:46:32;;;;;;;10.67;3.70;;;;;;;;;;5073517;28;20666;-79
2022/05/14 05:49:00;;;;;;;7.63;3.57;;;;;;;;;;5072824;28;20701;-80
2022/05/14 05:51:27;;;;;;;9.77;3.70;;;;;;;;;;5071587;28;20206;-80
2022/05/14 05:56:51;;;;;;;9.30;3.30;;;;;;;;;;5080604;28;20229;-80
2022/05/14 05:59:19;;;;;;;7.13;3.50;;;;;;;;;;5072669;28;21173;-80
2022/05/14 06:01:47;;;;;;;8.00;3.23;;;;;;;;;;5077290;28;20211;-80
2022/05/14 06:04:14;;;;;;;6.40;3.50;;;;;;;;;;5077166;28;20206;-81
2022/05/14 06:06:42;;;;;;;8.20;2.90;;;;;;;;;;5077320;28;20617;-80
2022/05/14 06:09:10;;;;;;;6.53;2.80;;;;;;;;;;5070087;28;20209;-80
2022/05/14 06:11:37;;;;;;;8.27;2.90;;;;;;;;;;5074371;28;20296;-80
2022/05/14 06:14:06;;;;;;;8.93;2.90;;;;;;;;;;5073017;28;21111;-81
2022/05/14 06:16:33;;;;;;;14.73;3.50;;;;;;;;;;5070383;28;20195;-80
2022/05/14 06:19:00;;;;;;;9.07;3.40;;;;;;;;;;5073595;28;20198;-81
2022/05/14 06:21:28;;;;;;;6.43;3.10;;;;;;;;;;5066691;28;20692;-81
2022/05/14 06:23:55;;;;;;;8.00;3.23;;;;;;;;;;5065039;28;20267;-81
2022/05/14 06:26:23;;;;;;;5.07;2.77;;;;;;;;;;5062489;28;20294;-82
2022/05/14 06:28:50;;;;;;;6.30;3.10;;;;;;;;;;5065228;28;20201;-82
2022/05/14 06:31:19;;;;;;;7.70;2.67;;;;;;;;;;5065499;28;20292;-81
2022/05/14 06:33:46;;;;;;;8.83;2.63;;;;;;;;;;5063064;28;20230;-81
2022/05/14 06:36:13;;;;;;;9.47;2.83;;;;;;;;;;5070633;28;20213;-81
2022/05/14 06:38:40;;;;;;;11.23;2.60;;;;;;;;;;5069919;28;20285;-83
2022/05/14 06:41:08;;;;;;;7.87;2.60;;;;;;;;;;5065968;28;20214;-81
2022/05/14 06:43:35;;;;;;;10.53;2.70;;;;;;;;;;5068281;28;20203;-82
2022/05/14 06:46:02;;;;;;;9.20;2.60;;;;;;;;;;5067809;28;20676;-81
2022/05/14 06:48:31;;;;;;;11.43;2.47;;;;;;;;;;5064199;28;20737;-82
2022/05/14 06:51:02;;;;;;;11.60;2.93;;;;;;;;;;5065574;28;20674;-80
2022/05/14 06:53:29;;;;;;;7.83;2.50;;;;;;;;;;5068534;28;20226;-82
2022/05/14 06:55:58;;;;;;;8.00;2.60;;;;;;;;;;5063101;28;20308;-82
2022/05/14 06:58:27;;;;;;;11.70;2.57;;;;;;;;;;5065093;28;20325;-83
2022/05/14 07:00:54;;;;;;;15.80;2.70;;;;;;;;;;5067871;28;20198;-81
2022/05/14 07:08:52;;;;;;;6.67;1.90;;;;;;;;;;5070687;28;20698;-82
2022/05/14 07:11:21;;;;;;;8.57;2.30;;;;;;;;;;5071030;28;20265;-83
2022/05/14 07:13:48;;;;;;;9.97;2.33;;;;;;;;;;5074206;28;20255;-82
2022/05/14 07:16:16;;;;;;;10.40;2.67;;;;;;;;;;5075241;28;20206;-78
2022/05/14 07:18:43;;;;;;;7.70;2.77;;;;;;;;;;5048587;22;20250;-74
2022/05/14 07:21:11;;;;;;;7.57;2.50;;;;;;;;;;5036651;28;20722;-73
2022/05/14 07:23:39;;;;;;;10.40;2.43;;;;;;;;;;5041253;28;20195;-75
2022/05/14 07:26:06;;;;;;;11.17;2.40;;;;;;;;;;5028582;28;20273;-77
2022/05/14 07:28:37;;;;;;;8.00;2.00;;;;;;;;;;5038079;28;20833;-75
2022/05/14 07:31:04;;;;;;;9.80;2.47;;;;;;;;;;5039162;28;20210;-72
2022/05/14 07:33:31;;;;;;;10.47;2.53;;;;;;;;;;5037977;28;20223;-74
2022/05/14 07:36:02;;;;;;;8.87;2.43;;;;;;;;;;5037700;28;20206;-74
2022/05/14 07:38:32;;;;;;;11.63;2.37;;;;;;;;;;5033345;28;20707;-72
2022/05/14 07:40:59;;;;;;;8.70;2.20;;;;;;;;;;5039961;28;20269;-73
2022/05/14 07:43:30;;;;;;;6.90;2.30;;;;;;;;;;5034505;28;20315;-73
2022/05/14 07:45:58;;;;;;;5.93;1.97;;;;;;;;;;5031890;28;20725;-73
2022/05/14 07:58:50;;;;;;;9.67;2.10;;;;;;;;;;5943135;22;20345;-75
2022/05/14 08:01:18;;;;;;;9.03;2.07;;;;;;;;;;5058028;28;20499;-72
2022/05/14 08:03:47;;;;;;;5.87;1.90;;;;;;;;;;5053040;28;20240;-74
2022/05/14 08:06:15;;;;;;;5.83;1.97;;;;;;;;;;5053694;28;20746;-74
2022/05/14 08:08:42;;;;;;;4.53;1.37;;;;;;;;;;5056628;28;20198;-73
2022/05/14 08:56:33;;;;;;;11.03;1.73;;;;;;;;;;5457013;22;21719;-77
2022/05/14 08:59:25;;;;;;;5.40;1.23;;;;;;;;;;5043324;28;20283;-76
2022/05/14 09:01:54;;;;;;;5.47;1.00;;;;;;;;;;5037121;28;20245;-76
2022/05/14 09:04:22;;;;;;;8.03;1.30;;;;;;;;;;5042203;28;20295;-76
2022/05/14 09:06:50;;;;;;;4.57;1.00;;;;;;;;;;5024860;28;20248;-76
2022/05/14 09:09:18;;;;;;;3.97;0.77;;;;;;;;;;5024447;28;20781;-75
2022/05/14 09:11:52;;;;;;;6.53;1.20;;;;;;;;;;5024617;28;20208;-76
2022/05/14 09:14:22;;;;;;;3.87;1.13;;;;;;;;;;5022629;28;20709;-76
2022/05/14 09:16:51;;;;;;;3.93;1.33;;;;;;;;;;5021905;28;20310;-72
2022/05/14 09:19:20;;;;;;;3.43;1.27;;;;;;;;;;5025893;28;20231;-76
2022/05/14 09:21:50;;;;;;;4.80;1.20;;;;;;;;;;5027239;28;20204;-76
2022/05/14 09:24:19;;;;;;;5.47;1.40;;;;;;;;;;5022497;28;20235;-74
2022/05/14 09:26:47;;;;;;;3.83;1.10;;;;;;;;;;5024570;28;20221;-75
2022/05/14 09:29:17;;;;;;;5.80;1.53;;;;;;;;;;5027382;28;20686;-75
2022/05/14 09:31:53;;;;;;;15.23;5.90;;;;;;;;;;5027999;28;20620;-76
2022/05/14 09:34:21;;;;;;;8.93;2.60;;;;;;;;;;5027108;28;20220;-76
2022/05/14 09:36:49;;;;;;;5.77;1.80;;;;;;;;;;5024412;28;20303;-76
2022/05/14 09:39:17;;;;;;;3.57;1.03;;;;;;;;;;5027116;28;20213;-76
2022/05/14 09:41:46;;;;;;;10.87;5.67;;;;;;;;;;5024869;28;20696;-76
2022/05/14 09:44:21;;;;;;;9.50;5.40;;;;;;;;;;5022184;28;20196;-75
2022/05/14 09:46:48;;;;;;;2.40;1.00;;;;;;;;;;5026755;28;20596;-74
2022/05/14 09:49:20;;;;;;;2.33;1.00;;;;;;;;;;5022942;28;20210;-75
2022/05/14 09:51:50;;;;;;;2.63;0.83;;;;;;;;;;5026062;28;20584;-75
2022/05/14 09:54:21;;;;;;;1.67;0.67;;;;;;;;;;5025524;28;20254;-76
2022/05/14 09:57:07;;;;;;;2.47;0.87;;;;;;;;;;5026978;28;20322;-76
2022/05/14 09:59:42;;;;;;;4.77;1.13;;;;;;;;;;5026769;28;20234;-76
2022/05/14 10:02:14;;;;;;;6.33;0.90;;;;;;;;;;5025863;28;20299;-77
2022/05/14 10:04:52;;;;;;;4.70;1.13;;;;;;;;;;5022236;28;20241;-74
2022/05/14 10:07:24;;;;;;;3.67;0.80;;;;;;;;;;5025833;28;20207;-77
2022/05/14 10:09:56;;;;;;;3.97;1.17;;;;;;;;;;5023836;28;20210;-75
2022/05/14 10:12:27;;;;;;;3.57;0.80;;;;;;;;;;5024470;28;20210;-75
2022/05/14 10:15:01;;;;;;;7.63;3.07;;;;;;;;;;5026324;28;20318;-75
2022/05/14 10:17:41;;;;;;;3.53;1.10;;;;;;;;;;5022764;28;20204;-76
2022/05/14 10:20:16;;;;;;;2.80;0.50;;;;;;;;;;5019783;28;20331;-76
2022/05/14 10:28:32;;;;;;;3.50;0.90;;;;;;;;;;5025394;28;20548;-77
2022/05/14 10:31:02;;;;;;;2.53;1.37;;;;;;;;;;5027068;28;20250;-75
2022/05/14 10:33:32;;;;;;;4.77;1.00;;;;;;;;;;5026381;28;20231;-74
2022/05/14 10:36:01;;;;;;;4.93;1.10;;;;;;;;;;5024388;28;21341;-76
2022/05/14 10:38:30;;;;;;;2.13;0.73;;;;;;;;;;5022679;28;20294;-77
2022/05/14 10:41:08;;;;;;;5.83;1.30;;;;;;;;;;5024466;28;20302;-75
2022/05/14 10:43:39;;;;;;;8.30;1.20;;;;;;;;;;5024160;28;20204;-76
2022/05/14 10:46:10;;;;;;;3.13;1.00;;;;;;;;;;5022514;28;20338;-74
2022/05/14 10:48:42;;;;;;;3.97;1.30;;;;;;;;;;5022219;28;20294;-74
2022/05/14 10:51:10;;;;;;;7.27;1.30;;;;;;;;;;5020100;28;20742;-77
2022/05/14 10:53:40;;;;;;;2.53;0.80;;;;;;;;;;5024761;28;20216;-76
2022/05/14 10:56:10;;;;;;;3.00;1.20;;;;;;;;;;5019772;28;20689;-76
2022/05/14 10:58:43;;;;;;;3.07;0.90;;;;;;;;;;5022584;28;20684;-77
2022/05/14 11:01:12;;;;;;;9.20;2.53;;;;;;;;;;5016747;28;20219;-77
2022/05/14 11:03:41;;;;;;;2.97;1.00;;;;;;;;;;5022257;28;20672;-76
2022/05/14 11:06:10;;;;;;;2.70;0.90;;;;;;;;;;5022895;28;20716;-76
2022/05/14 11:08:38;;;;;;;3.93;1.40;;;;;;;;;;5024143;28;20667;-77
2022/05/14 11:11:07;;;;;;;5.77;1.87;;;;;;;;;;5020721;28;20208;-75
2022/05/14 11:13:35;;;;;;;1.77;0.80;;;;;;;;;;5023190;28;20227;-76
2022/05/14 11:16:05;;;;;;;2.63;1.10;;;;;;;;;;5024991;28;20251;-76
2022/05/14 11:18:43;;;;;;;6.47;1.40;;;;;;;;;;5020940;28;20211;-76
2022/05/14 11:21:11;;;;;;;2.80;1.07;;;;;;;;;;5024548;28;20209;-77
2022/05/14 11:23:47;;;;;;;4.70;1.03;;;;;;;;;;5021740;28;20208;-76
2022/05/14 11:26:16;;;;;;;7.67;3.57;;;;;;;;;;5020654;28;20616;-75
2022/05/14 11:28:44;;;;;;;2.77;1.10;;;;;;;;;;5023986;28;20199;-76
2022/05/14 11:31:15;;;;;;;4.37;1.20;;;;;;;;;;5022003;28;20298;-77
2022/05/14 11:33:44;;;;;;;2.83;1.10;;;;;;;;;;5023347;28;20580;-75
2022/05/14 11:36:22;;;;;;;4.93;1.10;;;;;;;;;;5023813;28;20604;-77
2022/05/14 11:38:54;;;;;;;3.83;1.33;;;;;;;;;;5024258;28;20213;-76
2022/05/14 11:41:28;;;;;;;4.10;1.07;;;;;;;;;;5024067;28;20207;-76
2022/05/14 11:43:56;;;;;;;3.37;1.13;;;;;;;;;;5023201;28;20226;-76
2022/05/14 11:46:27;;;;;;;2.13;0.90;;;;;;;;;;5023585;28;20224;-76
2022/05/14 11:48:59;;;;;;;3.17;1.00;;;;;;;;;;5020174;28;20287;-76
2022/05/14 11:51:34;;;;;;;4.00;1.23;;;;;;;;;;5021612;28;20212;-76
2022/05/14 11:54:05;;;;;;;9.03;1.50;;;;;;;;;;5022339;28;20233;-76
2022/05/14 11:56:35;;;;;;;2.67;1.10;;;;;;;;;;5021757;28;20462;-76
2022/05/14 11:59:05;;;;;;;3.13;1.13;;;;;;;;;;5023314;28;20290;-76
2022/05/14 12:01:34;;;;;;;4.90;1.13;;;;;;;;;;5022427;28;20559;-76
2022/05/14 12:04:03;;;;;;;6.17;0.90;;;;;;;;;;5020113;28;20907;-75
2022/05/14 12:06:52;;;;;;;2.73;1.00;;;;;;;;;;5014688;28;20242;-76
2022/05/14 12:09:26;;;;;;;3.67;0.90;;;;;;;;;;5019284;28;20251;-76
2022/05/14 12:11:57;;;;;;;4.63;1.17;;;;;;;;;;5025678;28;20210;-76
2022/05/14 12:14:29;;;;;;;7.70;2.00;;;;;;;;;;5024542;28;20221;-76
2022/05/14 12:16:57;;;;;;;6.40;1.20;;;;;;;;;;5026760;28;20242;-76
2022/05/14 12:19:29;;;;;;;6.17;1.93;;;;;;;;;;5025614;28;20211;-77
2022/05/14 12:21:58;;;;;;;5.33;1.33;;;;;;;;;;5023113;28;20204;-75
2022/05/14 12:24:27;;;;;;;3.17;0.87;;;;;;;;;;5023923;28;20311;-77
2022/05/14 12:26:54;;;;;;;8.93;1.30;;;;;;;;;;5027675;28;20231;-74
2022/05/14 12:29:22;;;;;;;7.17;1.03;;;;;;;;;;5028095;28;20211;-76
2022/05/14 12:34:44;;;;;;;3.20;0.90;;;;;;;;;;5024484;28;20744;-75
2022/05/14 12:37:19;;;;;;;3.83;0.90;;;;;;;;;;5022623;28;20200;-76
2022/05/14 12:39:47;;;;;;;2.10;0.83;;;;;;;;;;5022368;28;20662;-74
2022/05/14 12:42:15;;;;;;;10.70;1.30;;;;;;;;;;5022371;28;20226;-75
2022/05/14 12:44:44;;;;;;;8.90;1.13;;;;;;;;;;5025846;28;20201;-76
2022/05/14 12:47:12;;;;;;;3.13;0.80;;;;;;;;;;5021608;28;20706;-76
2022/05/14 12:49:43;;;;;;;1.77;0.77;;;;;;;;;;5024722;28;20203;-76
2022/05/14 12:52:12;;;;;;;1.10;0.60;;;;;;;;;;5021948;28;20214;-75
2022/05/14 12:54:43;;;;;;;3.77;1.20;;;;;;;;;;5021388;28;20224;-76
2022/05/14 12:57:11;;;;;;;6.20;1.53;;;;;;;;;;5023759;28;20307;-74
2022/05/14 12:59:38;;;;;;;2.70;0.80;;;;;;;;;;5022105;28;20205;-76
2022/05/14 13:02:09;;;;;;;4.07;1.33;;;;;;;;;;5024022;28;20212;-75
2022/05/14 13:04:40;;;;;;;4.03;1.10;;;;;;;;;;5024930;28;20239;-75
2022/05/14 13:07:09;;;;;;;4.50;1.00;;;;;;;;;;5026484;28;20218;-73
2022/05/14 13:09:37;;;;;;;4.50;0.87;;;;;;;;;;5023976;28;20701;-73
2022/05/14 13:12:05;;;;;;;3.47;1.00;;;;;;;;;;5021992;28;20299;-75
2022/05/14 13:14:35;;;;;;;3.23;0.73;;;;;;;;;;5021321;28;20223;-75
2022/05/14 13:17:03;;;;;;;3.40;1.07;;;;;;;;;;5023069;28;20212;-75
2022/05/14 13:19:36;;;;;;;3.27;1.00;;;;;;;;;;5025882;28;20215;-75
2022/05/14 13:22:03;;;;;;;5.40;1.63;;;;;;;;;;5025199;28;21502;-74
2022/05/14 13:24:32;;;;;;;2.53;0.80;;;;;;;;;;5023316;28;20227;-72
2022/05/14 13:27:01;;;;;;;3.50;1.30;;;;;;;;;;5022891;28;20212;-75
2022/05/14 13:29:30;;;;;;;3.70;0.90;;;;;;;;;;5023970;28;20292;-75
2022/05/14 13:32:11;;;;;;;3.57;1.20;;;;;;;;;;5023477;28;20217;-75
2022/05/14 13:37:26;;;;;;;2.93;1.00;;;;;;;;;;5023620;28;20571;-75
2022/05/14 13:39:54;;;;;;;6.50;1.53;;;;;;;;;;5024525;28;20298;-74
2022/05/14 13:42:24;;;;;;;4.27;0.83;;;;;;;;;;5026464;28;20326;-75
2022/05/14 13:44:55;;;;;;;2.73;0.90;;;;;;;;;;5024954;28;20247;-74
2022/05/14 13:47:23;;;;;;;4.77;1.03;;;;;;;;;;5025794;28;20236;-73
2022/05/14 13:49:54;;;;;;;5.33;2.83;;;;;;;;;;5027752;28;20499;-75
2022/05/14 13:52:25;;;;;;;6.70;1.47;;;;;;;;;;5024109;28;20213;-75
2022/05/14 13:55:01;;;;;;;3.10;1.13;;;;;;;;;;5024219;28;20226;-73
2022/05/14 13:57:30;;;;;;;3.50;1.67;;;;;;;;;;5026497;28;20236;-74
2022/05/14 14:00:08;;;;;;;3.07;1.30;;;;;;;;;;5022876;28;20208;-75
2022/05/14 14:02:35;;;;;;;2.40;0.93;;;;;;;;;;5025899;28;20203;-75
2022/05/14 14:05:04;;;;;;;1.87;0.90;;;;;;;;;;5022971;28;20641;-75
2022/05/14 14:07:34;;;;;;;4.67;1.00;;;;;;;;;;5021443;28;20306;-73
2022/05/14 14:10:09;;;;;;;5.00;1.40;;;;;;;;;;5022866;28;20627;-73
2022/05/14 14:12:37;;;;;;;6.30;0.90;;;;;;;;;;5024055;28;20211;-72
2022/05/14 14:15:05;;;;;;;2.53;0.90;;;;;;;;;;5020598;28;20234;-72
2022/05/14 14:17:32;;;;;;;2.90;1.07;;;;;;;;;;5025099;28;20286;-72
2022/05/14 14:20:00;;;;;;;2.87;0.90;;;;;;;;;;5024691;28;20299;-72
2022/05/14 14:22:27;;;;;;;3.93;1.13;;;;;;;;;;5022658;28;20201;-72
2022/05/14 14:24:56;;;;;;;3.10;1.50;;;;;;;;;;5024959;28;20648;-72
2022/05/14 14:27:26;;;;;;;7.07;3.77;;;;;;;;;;5024853;28;20663;-72
2022/05/14 14:29:57;;;;;;;6.50;2.50;;;;;;;;;;5021779;28;20652;-72
2022/05/14 14:32:25;;;;;;;6.83;1.10;;;;;;;;;;5022707;28;20252;-73
2022/05/14 14:34:52;;;;;;;2.77;1.00;;;;;;;;;;5022256;28;20221;-73
2022/05/14 14:37:19;;;;;;;6.57;3.00;;;;;;;;;;5024664;28;20299;-72
2022/05/14 14:39:50;;;;;;;4.50;2.23;;;;;;;;;;5022091;28;20211;-73
2022/05/14 14:42:17;;;;;;;5.67;1.80;;;;;;;;;;5018667;28;20689;-73
2022/05/14 14:44:44;;;;;;;4.93;1.10;;;;;;;;;;5027078;28;20197;-72
2022/05/14 14:47:13;;;;;;;4.67;1.20;;;;;;;;;;5024131;28;20213;-74
2022/05/14 14:49:41;;;;;;;7.87;1.60;;;;;;;;;;5019233;28;20674;-74
2022/05/14 14:52:08;;;;;;;9.00;2.70;;;;;;;;;;5024918;28;20201;-73
2022/05/14 14:54:35;;;;;;;4.40;1.50;;;;;;;;;;5028998;28;20232;-72
2022/05/14 14:57:03;;;;;;;8.27;2.30;;;;;;;;;;5022900;28;20208;-74
2022/05/14 14:59:30;;;;;;;4.90;1.20;;;;;;;;;;5026022;28;20213;-73
2022/05/14 15:02:00;;;;;;;7.70;1.70;;;;;;;;;;5023589;28;20229;-72
2022/05/14 15:04:31;;;;;;;3.03;0.93;;;;;;;;;;5021002;28;20298;-72
2022/05/14 15:06:59;;;;;;;9.27;1.40;;;;;;;;;;5023745;28;20547;-73
2022/05/14 15:09:26;;;;;;;10.10;1.40;;;;;;;;;;5023330;28;20208;-73
2022/05/14 15:11:53;;;;;;;3.17;1.13;;;;;;;;;;5024124;28;20723;-73
2022/05/14 15:14:22;;;;;;;1.73;0.97;;;;;;;;;;5024524;28;20292;-73
2022/05/14 15:16:50;;;;;;;6.83;1.47;;;;;;;;;;5025931;28;20249;-73
2022/05/14 15:19:17;;;;;;;6.77;1.10;;;;;;;;;;5024864;28;20210;-73
2022/05/14 15:21:45;;;;;;;2.97;1.20;;;;;;;;;;5022924;28;20277;-73
2022/05/14 15:24:13;;;;;;;5.23;1.90;;;;;;;;;;5024398;28;20209;-72
2022/05/14 15:26:40;;;;;;;7.83;1.90;;;;;;;;;;5022254;28;20310;-73
2022/05/14 15:29:07;;;;;;;5.57;2.70;;;;;;;;;;5023830;28;20228;-73
2022/05/14 15:31:41;;;;;;;3.60;1.30;;;;;;;;;;5023003;28;20577;-73
2022/05/14 15:34:09;;;;;;;4.20;2.53;;;;;;;;;;5021230;28;20740;-73
2022/05/14 15:36:37;;;;;;;3.67;0.93;;;;;;;;;;5022972;28;20240;-73
2022/05/14 15:39:06;;;;;;;9.17;1.40;;;;;;;;;;5021734;28;20746;-74
2022/05/14 15:41:33;;;;;;;10.30;1.10;;;;;;;;;;5020244;28;20203;-73
2022/05/14 15:44:02;;;;;;;7.10;1.30;;;;;;;;;;5024088;28;20295;-73
2022/05/14 15:46:29;;;;;;;6.87;1.10;;;;;;;;;;5024000;28;20243;-73
2022/05/14 15:49:00;;;;;;;2.77;1.00;;;;;;;;;;5021154;28;20201;-73
2022/05/14 15:51:29;;;;;;;7.33;1.30;;;;;;;;;;5023045;28;20274;-73
2022/05/14 15:53:56;;;;;;;8.27;1.60;;;;;;;;;;5022292;28;20204;-73
2022/05/14 15:56:26;;;;;;;8.40;1.53;;;;;;;;;;5019182;28;20225;-73
2022/05/14 15:58:53;;;;;;;2.97;1.00;;;;;;;;;;5021292;28;20208;-73
2022/05/14 16:01:20;;;;;;;8.17;1.47;;;;;;;;;;5024217;28;20210;-72
2022/05/14 16:03:48;;;;;;;5.40;2.60;;;;;;;;;;5020782;28;20206;-73
2022/05/14 16:06:16;;;;;;;3.80;1.77;;;;;;;;;;5023666;28;20231;-73
2022/05/14 16:08:43;;;;;;;4.80;1.40;;;;;;;;;;5021755;28;20292;-74
2022/05/14 16:16:41;;;;;;;6.77;1.43;;;;;;;;;;5021680;28;20708;-73
2022/05/14 16:19:09;;;;;;;4.80;1.40;;;;;;;;;;5022637;28;20208;-73